Time;durP1;ratioP1;P1;durP2;ratioP2;P2;SDS_P1;SDS_P2;PMS_P1;PMS_P2;Temp;Humidity;BMP_temperature;BMP_pressure;BME280_temperature;BME280_humidity;BME280_pressure;Samples;Min_cycle;Max_cycle;Signal;HPM_P1;HPM_P2
2023/06/18 00:00:08;;;;;;;8.20;7.50;;;23.40;85.10;;;;;;6205702;28;90093;-68
2023/06/18 00:03:10;;;;;;;7.22;6.63;;;23.40;85.00;;;;;;6205539;28;89227;-69
2023/06/18 00:06:12;;;;;;;7.07;6.47;;;23.40;85.10;;;;;;6195337;28;89153;-69
2023/06/18 00:09:14;;;;;;;7.97;7.25;;;23.40;85.10;;;;;;6183110;28;89489;-68
2023/06/18 00:12:16;;;;;;;8.98;8.18;;;23.40;85.10;;;;;;6196351;28;89548;-68
2023/06/18 00:15:20;;;;;;;8.70;8.00;;;23.40;85.00;;;;;;6204687;28;89152;-68
2023/06/18 00:18:22;;;;;;;8.32;7.63;;;23.40;85.00;;;;;;6200974;28;88305;-68
2023/06/18 00:21:24;;;;;;;8.80;8.02;;;23.40;85.10;;;;;;6194245;28;88347;-69
2023/06/18 00:24:26;;;;;;;8.30;7.60;;;23.40;85.10;;;;;;6200986;28;89021;-68
2023/06/18 00:27:28;;;;;;;8.27;7.57;;;23.40;85.10;;;;;;6193861;28;89249;-68
2023/06/18 00:30:32;;;;;;;9.50;8.60;;;23.40;85.20;;;;;;6196422;28;90100;-68
2023/06/18 00:33:34;;;;;;;9.60;8.70;;;23.40;85.20;;;;;;6206113;28;89179;-69
2023/06/18 00:36:38;;;;;;;9.05;8.27;;;23.40;85.20;;;;;;6200350;28;89387;-68
2023/06/18 00:39:40;;;;;;;8.05;7.40;;;23.40;85.20;;;;;;6206089;28;88991;-68
2023/06/18 00:42:44;;;;;;;9.07;8.27;;;23.40;85.20;;;;;;6200614;28;89061;-68
2023/06/18 00:45:48;;;;;;;8.82;8.13;;;23.40;85.20;;;;;;6201209;28;89424;-68
2023/06/18 00:48:50;;;;;;;9.43;8.63;;;23.40;86.10;;;;;;6195354;28;89296;-68
2023/06/18 00:51:52;;;;;;;9.13;8.32;;;23.40;85.20;;;;;;6204971;28;88017;-68
2023/06/18 00:54:56;;;;;;;8.70;8.00;;;23.40;85.20;;;;;;6195094;28;89228;-68
2023/06/18 00:58:02;;;;;;;8.20;7.50;;;23.40;85.20;;;;;;6197286;28;89154;-68
2023/06/18 01:01:10;;;;;;;8.52;7.72;;;23.40;85.20;;;;;;6205598;28;90051;-68
2023/06/18 01:04:12;;;;;;;8.20;7.50;;;23.40;85.20;;;;;;6198416;28;89155;-68
2023/06/18 01:07:14;;;;;;;8.35;7.65;;;23.40;85.20;;;;;;6200548;28;91423;-68
2023/06/18 01:10:17;;;;;;;8.77;8.00;;;23.40;85.20;;;;;;6193300;28;89063;-68
2023/06/18 01:13:20;;;;;;;8.00;7.30;;;23.40;85.20;;;;;;6205050;28;89117;-68
2023/06/18 01:16:24;;;;;;;8.50;7.70;;;23.40;85.20;;;;;;6204374;28;88255;-68
2023/06/18 01:19:43;;;;;;;8.63;7.93;;;23.40;85.30;;;;;;6192456;28;89137;-68
2023/06/18 01:22:51;;;;;;;8.90;8.20;;;23.40;85.30;;;;;;6205515;28;88412;-68
2023/06/18 01:25:57;;;;;;;8.82;8.13;;;23.40;85.30;;;;;;6195985;28;89451;-68
2023/06/18 01:29:00;;;;;;;8.90;8.13;;;23.40;85.30;;;;;;6191568;28;89037;-68
2023/06/18 01:32:04;;;;;;;9.77;8.98;;;23.40;85.30;;;;;;6191494;28;90286;-68
2023/06/18 01:35:08;;;;;;;9.85;8.95;;;23.40;85.30;;;;;;6197464;28;89244;-68
2023/06/18 01:38:20;;;;;;;8.75;7.95;;;23.40;85.40;;;;;;6200834;28;87967;-68
2023/06/18 01:41:27;;;;;;;10.13;9.23;;;23.40;85.30;;;;;;6198370;28;89161;-68
2023/06/18 01:44:31;;;;;;;10.25;9.35;;;23.40;85.40;;;;;;6194255;28;89488;-68
2023/06/18 01:47:35;;;;;;;9.10;8.38;;;23.40;85.30;;;;;;6199191;28;89077;-68
2023/06/18 01:50:39;;;;;;;9.15;8.35;;;23.40;85.30;;;;;;6197717;28;88994;-68
2023/06/18 01:53:41;;;;;;;9.25;8.45;;;23.40;85.20;;;;;;6205912;28;88357;-68
2023/06/18 01:56:44;;;;;;;10.10;9.15;;;23.40;85.20;;;;;;6203790;28;89002;-68
2023/06/18 01:59:46;;;;;;;9.23;8.43;;;23.40;85.20;;;;;;6195522;28;89124;-68
2023/06/18 02:02:50;;;;;;;9.73;8.82;;;23.40;85.30;;;;;;6200206;28;90038;-68
2023/06/18 02:05:52;;;;;;;10.35;9.32;;;23.40;85.30;;;;;;6200251;28;89057;-68
2023/06/18 02:08:54;;;;;;;10.68;9.70;;;23.40;85.30;;;;;;6209425;28;89105;-69
2023/06/18 02:11:56;;;;;;;9.90;9.00;;;23.40;85.40;;;;;;6202647;28;89162;-68
2023/06/18 02:14:58;;;;;;;9.13;8.32;;;23.40;85.30;;;;;;6207524;28;89095;-68
2023/06/18 02:18:02;;;;;;;10.50;9.57;;;23.40;85.40;;;;;;6198959;28;89018;-68
2023/06/18 02:21:04;;;;;;;10.30;9.40;;;23.40;85.40;;;;;;6194579;28;89303;-69
2023/06/18 02:24:06;;;;;;;10.10;9.20;;;23.40;85.40;;;;;;6205225;28;88815;-68
2023/06/18 02:27:08;;;;;;;10.35;9.45;;;23.40;85.40;;;;;;6198885;28;89044;-68
2023/06/18 02:30:10;;;;;;;10.25;9.25;;;23.40;85.40;;;;;;6203646;28;88005;-68
2023/06/18 02:33:17;;;;;;;11.50;10.43;;;23.40;85.40;;;;;;6202367;28;90142;-68
2023/06/18 02:36:19;;;;;;;11.63;10.55;;;23.40;85.40;;;;;;6194559;28;89043;-69
2023/06/18 02:39:21;;;;;;;10.38;9.38;;;23.40;85.40;;;;;;6196470;28;90337;-68
2023/06/18 02:42:23;;;;;;;9.85;9.05;;;23.40;85.40;;;;;;6205101;28;89174;-68
2023/06/18 02:45:26;;;;;;;9.85;8.95;;;23.40;85.30;;;;;;6205884;28;89078;-69
2023/06/18 02:48:30;;;;;;;10.45;9.55;;;23.40;85.30;;;;;;6206939;28;89123;-68
2023/06/18 02:51:32;;;;;;;9.95;9.05;;;23.40;85.30;;;;;;6206801;28;87940;-68
2023/06/18 02:54:34;;;;;;;10.70;9.70;;;23.40;85.30;;;;;;6204796;28;87685;-68
2023/06/18 02:57:36;;;;;;;10.65;9.65;;;23.40;85.40;;;;;;6205073;28;89187;-68
2023/06/18 03:00:38;;;;;;;10.20;9.30;;;23.40;85.40;;;;;;6201834;28;88054;-68
2023/06/18 03:03:42;;;;;;;11.32;10.32;;;23.40;85.40;;;;;;6198105;28;90368;-68
2023/06/18 03:06:44;;;;;;;10.82;9.93;;;23.40;85.40;;;;;;6205570;28;87864;-68
2023/06/18 03:09:46;;;;;;;11.95;10.85;;;23.40;85.40;;;;;;6203152;28;89181;-68
2023/06/18 03:12:48;;;;;;;11.48;10.45;;;23.40;85.40;;;;;;6205418;28;89098;-69
2023/06/18 03:15:50;;;;;;;11.20;10.20;;;23.30;85.40;;;;;;6205534;28;89002;-68
2023/06/18 03:18:53;;;;;;;11.00;10.07;;;23.40;85.50;;;;;;6206444;28;89082;-68
2023/06/18 03:21:55;;;;;;;10.88;9.88;;;23.30;85.40;;;;;;6204799;28;90436;-68
2023/06/18 03:25:00;;;;;;;10.60;9.65;;;23.30;85.40;;;;;;6193731;28;88231;-68
2023/06/18 03:28:02;;;;;;;11.40;10.40;;;23.30;85.40;;;;;;6154547;28;1221165;-68
2023/06/18 03:31:04;;;;;;;12.00;10.90;;;23.40;85.50;;;;;;6204354;28;89048;-68
2023/06/18 03:34:08;;;;;;;11.10;10.10;;;23.30;85.40;;;;;;6197614;28;89990;-68
2023/06/18 03:37:11;;;;;;;10.88;9.98;;;23.40;85.40;;;;;;6200863;28;89307;-68
2023/06/18 03:40:13;;;;;;;8.73;7.93;;;23.30;85.40;;;;;;6206927;28;89108;-68
2023/06/18 03:43:15;;;;;;;10.90;9.90;;;23.30;85.30;;;;;;6204192;28;89020;-68
2023/06/18 03:46:17;;;;;;;11.13;10.13;;;23.40;85.40;;;;;;6196020;28;89088;-68
2023/06/18 03:49:21;;;;;;;10.52;9.60;;;23.30;85.30;;;;;;6203253;28;89427;-68
2023/06/18 03:52:23;;;;;;;11.00;9.90;;;23.40;85.40;;;;;;6199673;28;87992;-68
2023/06/18 03:55:25;;;;;;;11.77;10.68;;;23.40;85.40;;;;;;6194254;28;88379;-68
2023/06/18 03:58:26;;;;;;;11.35;10.35;;;23.30;86.20;;;;;;6206492;28;89072;-68
2023/06/18 04:01:28;;;;;;;11.75;10.65;;;23.30;85.30;;;;;;6205572;28;89129;-67
2023/06/18 04:04:32;;;;;;;10.38;9.48;;;23.30;85.40;;;;;;6202034;28;90014;-68
2023/06/18 04:07:34;;;;;;;11.48;10.48;;;23.30;85.40;;;;;;6206049;28;89112;-68
2023/06/18 04:10:36;;;;;;;10.80;9.80;;;23.30;85.40;;;;;;6206310;28;87995;-68
2023/06/18 04:13:38;;;;;;;10.73;9.82;;;23.30;85.40;;;;;;6205664;28;89023;-68
2023/06/18 04:16:40;;;;;;;10.77;9.77;;;23.30;85.40;;;;;;6205801;28;89024;-68
2023/06/18 04:19:43;;;;;;;12.35;11.15;;;23.30;85.40;;;;;;6193138;28;89115;-68
2023/06/18 04:22:45;;;;;;;12.65;11.45;;;23.30;85.50;;;;;;6206245;28;89087;-68
2023/06/18 04:25:47;;;;;;;12.38;11.27;;;23.40;85.50;;;;;;6194479;28;88714;-68
2023/06/18 04:28:49;;;;;;;12.10;11.05;;;23.40;85.60;;;;;;6196016;28;89024;-68
2023/06/18 04:31:51;;;;;;;12.70;11.50;;;23.30;85.60;;;;;;6205300;28;89311;-68
2023/06/18 04:34:55;;;;;;;12.05;11.02;;;23.40;85.60;;;;;;6204605;28;90027;-68
2023/06/18 04:37:57;;;;;;;12.45;11.35;;;23.40;85.60;;;;;;6206983;28;89265;-68
2023/06/18 04:40:59;;;;;;;12.25;11.13;;;23.40;85.50;;;;;;6205000;28;89287;-68
2023/06/18 04:44:01;;;;;;;11.88;10.88;;;23.40;85.50;;;;;;6194860;28;89233;-68
2023/06/18 04:47:03;;;;;;;12.18;10.98;;;23.40;85.50;;;;;;6184266;28;89088;-68
2023/06/18 04:50:08;;;;;;;12.10;11.00;;;23.40;85.50;;;;;;6205323;28;88971;-68
2023/06/18 04:53:10;;;;;;;12.23;11.13;;;23.30;85.50;;;;;;6200160;28;89041;-68
2023/06/18 04:56:12;;;;;;;11.35;10.25;;;23.40;85.50;;;;;;6205805;28;88378;-68
2023/06/18 04:59:14;;;;;;;11.77;10.68;;;23.40;85.50;;;;;;6200949;28;89281;-68
2023/06/18 05:02:17;;;;;;;11.68;10.68;;;23.40;85.60;;;;;;6193674;28;89053;-68
2023/06/18 05:05:21;;;;;;;11.18;10.18;;;23.40;85.50;;;;;;6202862;28;90164;-68
2023/06/18 05:08:24;;;;;;;11.55;10.55;;;23.40;85.60;;;;;;6205121;28;89133;-68
2023/06/18 05:11:26;;;;;;;10.95;9.95;;;23.40;85.50;;;;;;6205592;28;89163;-68
2023/06/18 05:14:28;;;;;;;11.80;10.73;;;23.30;85.50;;;;;;6204530;28;89448;-68
2023/06/18 05:17:30;;;;;;;11.05;10.15;;;23.40;85.50;;;;;;6205041;28;89120;-68
2023/06/18 05:20:34;;;;;;;10.93;10.00;;;23.40;85.60;;;;;;6204772;28;89082;-68
2023/06/18 05:23:36;;;;;;;11.48;10.48;;;23.40;85.50;;;;;;6204277;28;88974;-68
2023/06/18 05:26:38;;;;;;;11.32;10.32;;;23.40;85.50;;;;;;6204995;28;88316;-68
2023/06/18 05:29:40;;;;;;;10.82;9.93;;;23.40;85.60;;;;;;6202002;28;89086;-68
2023/06/18 05:32:42;;;;;;;10.63;9.70;;;23.40;85.60;;;;;;6192704;28;89032;-68
2023/06/18 05:35:45;;;;;;;11.35;10.35;;;23.40;85.70;;;;;;6194642;28;90124;-68
2023/06/18 05:38:47;;;;;;;11.00;10.00;;;23.40;85.60;;;;;;6194930;28;89112;-68
2023/06/18 05:41:51;;;;;;;10.38;9.48;;;23.40;85.70;;;;;;6193783;28;89423;-68
2023/06/18 05:44:54;;;;;;;10.75;9.75;;;23.40;85.60;;;;;;6203244;28;89052;-68
2023/06/18 05:47:56;;;;;;;11.15;10.15;;;23.40;85.70;;;;;;6199672;28;88420;-68
2023/06/18 05:51:00;;;;;;;11.45;10.40;;;23.40;85.70;;;;;;6194503;28;89576;-68
2023/06/18 05:54:02;;;;;;;10.95;9.95;;;23.40;85.70;;;;;;6195247;28;87938;-68
2023/06/18 05:57:05;;;;;;;10.55;9.65;;;23.40;85.70;;;;;;6200491;28;88573;-68
2023/06/18 06:00:08;;;;;;;10.48;9.48;;;23.40;85.60;;;;;;6202752;28;89134;-68
2023/06/18 06:03:10;;;;;;;10.63;9.63;;;23.40;85.60;;;;;;6201490;28;89276;-68
2023/06/18 06:06:14;;;;;;;10.68;9.77;;;23.40;85.70;;;;;;6191632;28;90108;-68
2023/06/18 06:09:16;;;;;;;10.48;9.50;;;23.50;85.70;;;;;;6204976;28;89316;-68
2023/06/18 06:12:18;;;;;;;11.00;9.93;;;23.40;85.70;;;;;;6202939;28;89346;-68
2023/06/18 06:15:20;;;;;;;10.90;9.80;;;23.50;85.70;;;;;;6204670;28;89115;-68
2023/06/18 06:18:22;;;;;;;10.57;9.57;;;23.50;85.80;;;;;;6193486;28;89115;-68
2023/06/18 06:21:25;;;;;;;10.82;9.90;;;23.50;85.80;;;;;;6198544;28;89030;-68
2023/06/18 06:24:27;;;;;;;10.02;9.18;;;23.50;85.80;;;;;;6191749;28;89063;-68
2023/06/18 06:27:29;;;;;;;9.82;9.00;;;23.50;85.80;;;;;;6205691;28;88391;-68
2023/06/18 06:30:31;;;;;;;10.20;9.30;;;23.50;85.80;;;;;;6207727;28;89278;-68
2023/06/18 06:33:33;;;;;;;10.60;9.68;;;23.50;85.80;;;;;;6208551;28;89014;-68
2023/06/18 06:36:38;;;;;;;10.43;9.43;;;23.50;85.80;;;;;;6206757;28;88902;-68
2023/06/18 06:39:43;;;;;;;10.30;9.40;;;23.50;85.90;;;;;;6208053;28;89490;-68
2023/06/18 06:42:45;;;;;;;10.55;9.55;;;23.50;85.80;;;;;;6201651;28;89049;-68
2023/06/18 06:45:47;;;;;;;9.93;9.02;;;23.50;85.90;;;;;;6195739;28;89250;-68
2023/06/18 06:48:49;;;;;;;10.15;9.25;;;23.50;85.90;;;;;;6208351;28;87974;-68
2023/06/18 06:51:56;;;;;;;10.23;9.25;;;23.50;85.90;;;;;;6192044;28;89164;-68
2023/06/18 06:54:58;;;;;;;9.90;9.00;;;23.50;85.80;;;;;;6207253;28;89035;-68
2023/06/18 06:58:00;;;;;;;10.38;9.45;;;23.50;85.90;;;;;;6208793;28;88459;-68
2023/06/18 07:01:02;;;;;;;10.55;9.55;;;23.50;85.90;;;;;;6206123;28;89205;-68
2023/06/18 07:04:04;;;;;;;10.30;9.32;;;23.50;85.90;;;;;;6207737;28;89418;-68
2023/06/18 07:07:07;;;;;;;10.18;9.27;;;23.50;85.90;;;;;;6209159;28;89032;-68
2023/06/18 07:10:10;;;;;;;9.77;8.93;;;23.50;85.90;;;;;;6202752;28;90484;-68
2023/06/18 07:13:13;;;;;;;10.23;9.32;;;23.50;85.90;;;;;;6207128;28;89190;-68
2023/06/18 07:16:15;;;;;;;10.57;9.57;;;23.60;85.90;;;;;;6207552;28;89005;-68
2023/06/18 07:19:17;;;;;;;9.70;8.90;;;23.50;85.80;;;;;;6206995;28;89057;-68
2023/06/18 07:22:21;;;;;;;9.82;8.93;;;23.50;85.90;;;;;;6207818;28;89201;-68
2023/06/18 07:25:23;;;;;;;10.18;9.27;;;23.50;85.80;;;;;;6205213;28;88751;-68
2023/06/18 07:28:25;;;;;;;9.52;8.73;;;23.60;85.90;;;;;;6204950;28;88360;-68
2023/06/18 07:31:27;;;;;;;9.88;9.00;;;23.50;85.90;;;;;;6207828;28;89461;-68
2023/06/18 07:34:29;;;;;;;10.10;9.20;;;23.60;85.90;;;;;;6186172;28;89089;-68
2023/06/18 07:37:33;;;;;;;9.65;8.82;;;23.50;85.90;;;;;;6205017;28;90024;-68
2023/06/18 07:40:37;;;;;;;10.32;9.43;;;23.50;85.90;;;;;;6207527;28;89209;-68
2023/06/18 07:43:40;;;;;;;10.48;9.48;;;23.50;85.90;;;;;;6202933;28;89512;-68
2023/06/18 07:46:43;;;;;;;9.68;8.82;;;23.50;85.90;;;;;;6194584;28;89131;-68
2023/06/18 07:49:45;;;;;;;9.35;8.55;;;23.50;86.20;;;;;;6207379;28;89003;-68
2023/06/18 07:52:48;;;;;;;9.35;8.55;;;23.60;86.00;;;;;;6206910;28;89042;-68
2023/06/18 07:55:50;;;;;;;9.35;8.55;;;23.60;86.00;;;;;;6195439;28;89039;-68
2023/06/18 07:58:52;;;;;;;9.55;8.75;;;23.60;86.00;;;;;;6202608;28;88423;-68
2023/06/18 08:01:54;;;;;;;9.73;8.82;;;23.60;86.00;;;;;;6207307;28;87946;-68
2023/06/18 08:04:56;;;;;;;9.70;8.85;;;23.60;86.10;;;;;;6206340;28;89066;-68
2023/06/18 08:08:00;;;;;;;10.00;9.10;;;23.60;86.10;;;;;;6193927;28;90021;-68
2023/06/18 08:11:02;;;;;;;9.93;9.13;;;23.60;86.10;;;;;;6206820;28;89079;-68
2023/06/18 08:14:04;;;;;;;10.05;9.18;;;23.50;86.00;;;;;;6200077;28;89107;-68
2023/06/18 08:17:06;;;;;;;10.07;9.18;;;23.60;86.10;;;;;;6194497;28;88026;-68
2023/06/18 08:20:09;;;;;;;9.68;8.85;;;23.60;86.10;;;;;;6205915;28;89089;-68
2023/06/18 08:23:12;;;;;;;9.43;8.63;;;23.60;86.10;;;;;;6207137;28;89124;-68
2023/06/18 08:26:14;;;;;;;9.90;9.00;;;23.60;86.20;;;;;;6206030;28;89120;-68
2023/06/18 08:29:16;;;;;;;9.20;8.40;;;23.60;86.10;;;;;;6204649;28;88432;-68
2023/06/18 08:35:55;;;;;;;9.15;8.35;;;23.60;86.20;;;;;;6203214;28;87786;-68
2023/06/18 08:38:58;;;;;;;9.50;8.70;;;23.60;86.20;;;;;;6205490;28;89886;-68
2023/06/18 08:42:00;;;;;;;10.38;9.38;;;23.60;86.20;;;;;;6201272;28;91249;-68
2023/06/18 08:45:02;;;;;;;9.13;8.32;;;23.60;86.20;;;;;;6205969;28;89030;-68
2023/06/18 08:48:08;;;;;;;9.57;8.70;;;23.60;86.20;;;;;;6194573;28;89114;-68
2023/06/18 08:51:11;;;;;;;9.07;8.27;;;23.60;86.20;;;;;;6203894;28;89699;-68
2023/06/18 08:54:18;;;;;;;9.18;8.38;;;23.60;86.20;;;;;;6201525;28;89212;-68
2023/06/18 08:57:27;;;;;;;9.55;8.75;;;23.60;86.20;;;;;;6203928;28;87972;-68
2023/06/18 09:00:29;;;;;;;9.32;8.52;;;23.60;86.10;;;;;;6198515;28;88437;-68
2023/06/18 09:03:32;;;;;;;8.65;7.95;;;23.60;86.20;;;;;;6200116;28;89147;-68
2023/06/18 09:06:34;;;;;;;9.43;8.55;;;23.60;86.10;;;;;;6205384;28;87711;-68
2023/06/18 09:09:38;;;;;;;9.35;8.55;;;23.60;86.20;;;;;;6205129;28;90067;-68
2023/06/18 09:12:40;;;;;;;9.07;8.27;;;23.50;86.20;;;;;;6205156;28;89093;-68
2023/06/18 09:15:42;;;;;;;9.07;8.27;;;23.60;86.20;;;;;;6204818;28;87957;-68
2023/06/18 09:18:45;;;;;;;9.40;8.60;;;23.60;86.30;;;;;;6205334;28;89074;-68
2023/06/18 09:21:47;;;;;;;9.25;8.45;;;23.60;86.40;;;;;;6206395;28;88929;-68
2023/06/18 09:24:57;;;;;;;8.88;8.07;;;23.50;86.40;;;;;;6205989;28;89251;-68
2023/06/18 09:27:59;;;;;;;9.18;8.38;;;23.50;86.30;;;;;;6203703;28;90865;-68
2023/06/18 09:31:02;;;;;;;8.98;8.18;;;23.60;86.40;;;;;;6203025;28;87196;-68
2023/06/18 09:34:15;;;;;;;8.48;7.78;;;23.50;86.30;;;;;;6203550;28;89141;-68
2023/06/18 09:37:17;;;;;;;8.90;8.10;;;23.60;86.40;;;;;;6204703;28;87814;-68
2023/06/18 09:40:22;;;;;;;8.65;7.93;;;23.50;86.40;;;;;;6200029;28;89036;-68
2023/06/18 09:43:33;;;;;;;8.57;7.88;;;23.60;86.40;;;;;;6185703;28;89244;-68
2023/06/18 09:46:35;;;;;;;8.80;8.10;;;23.60;86.40;;;;;;6203294;28;88279;-68
2023/06/18 09:49:37;;;;;;;8.30;7.60;;;23.60;86.40;;;;;;6191889;28;88915;-68
2023/06/18 09:52:44;;;;;;;8.25;7.55;;;23.60;86.40;;;;;;6199436;28;89597;-68
2023/06/18 09:55:48;;;;;;;8.23;7.50;;;23.60;86.40;;;;;;6196126;28;89319;-68
2023/06/18 09:58:51;;;;;;;8.77;8.07;;;23.60;86.40;;;;;;6208093;28;89162;-68
2023/06/18 10:01:54;;;;;;;8.82;8.02;;;23.60;86.40;;;;;;6197727;28;88306;-68
2023/06/18 10:04:56;;;;;;;8.77;7.97;;;23.60;86.40;;;;;;6200324;28;88139;-68
2023/06/18 10:07:59;;;;;;;8.60;7.80;;;23.60;86.40;;;;;;6208961;28;87955;-67
2023/06/18 10:11:02;;;;;;;8.68;7.97;;;23.60;86.40;;;;;;6201105;28;89973;-68
2023/06/18 10:14:12;;;;;;;8.52;7.82;;;23.60;86.40;;;;;;6209287;28;89035;-68
2023/06/18 10:17:23;;;;;;;8.60;7.80;;;23.60;86.40;;;;;;6203000;28;88960;-68
2023/06/18 10:20:28;;;;;;;8.20;7.50;;;23.60;86.40;;;;;;6204502;28;88854;-68
2023/06/18 10:23:31;;;;;;;8.45;7.75;;;23.60;86.40;;;;;;6207227;28;89201;-68
2023/06/18 10:26:36;;;;;;;8.35;7.65;;;23.60;86.30;;;;;;6204364;28;90634;-68
2023/06/18 10:29:39;;;;;;;8.02;7.32;;;23.50;86.30;;;;;;6201344;28;88347;-68
2023/06/18 10:32:43;;;;;;;8.48;7.70;;;23.60;86.40;;;;;;6208316;28;88313;-68
2023/06/18 10:35:47;;;;;;;8.73;7.93;;;23.60;86.40;;;;;;6206799;28;89200;-68
2023/06/18 10:38:49;;;;;;;8.57;7.78;;;23.60;86.50;;;;;;6208921;28;89033;-68
2023/06/18 10:41:54;;;;;;;8.40;7.68;;;23.60;86.50;;;;;;6203433;28;90095;-68
2023/06/18 10:45:02;;;;;;;8.23;7.40;;;23.60;86.40;;;;;;6209517;28;89027;-68
2023/06/18 10:48:15;;;;;;;7.82;7.22;;;23.60;86.40;;;;;;6208863;28;89414;-68
2023/06/18 10:51:19;;;;;;;8.23;7.53;;;23.60;86.40;;;;;;6201995;28;89862;-69
2023/06/18 10:54:23;;;;;;;8.02;7.32;;;23.60;86.40;;;;;;6198371;28;87871;-68
2023/06/18 10:57:30;;;;;;;7.88;7.18;;;23.60;86.40;;;;;;6198679;28;89074;-69
2023/06/18 11:00:37;;;;;;;7.45;6.85;;;23.60;86.40;;;;;;6207952;28;90690;-68
2023/06/18 11:03:40;;;;;;;8.00;7.30;;;23.60;86.40;;;;;;6208471;28;87218;-68
2023/06/18 11:06:42;;;;;;;7.90;7.30;;;23.60;86.30;;;;;;6207400;28;89260;-68
2023/06/18 11:09:48;;;;;;;7.35;6.75;;;23.60;86.30;;;;;;6206716;28;89317;-68
2023/06/18 11:12:52;;;;;;;7.60;7.00;;;23.60;86.20;;;;;;6207554;28;89989;-69
2023/06/18 11:15:58;;;;;;;7.70;7.10;;;23.60;86.20;;;;;;6207402;28;89082;-68
2023/06/18 11:19:03;;;;;;;7.47;6.88;;;23.60;86.20;;;;;;6207759;28;89011;-68
2023/06/18 11:22:06;;;;;;;7.88;7.28;;;23.60;86.20;;;;;;6208344;28;89255;-68
2023/06/18 11:25:09;;;;;;;8.40;7.60;;;23.60;86.30;;;;;;6206541;28;89068;-68
2023/06/18 11:28:13;;;;;;;7.35;6.75;;;23.60;86.30;;;;;;6206339;28;89075;-68
2023/06/18 11:31:15;;;;;;;7.55;6.95;;;23.60;86.30;;;;;;6207304;28;88965;-68
2023/06/18 11:34:17;;;;;;;7.90;7.20;;;23.60;86.40;;;;;;6207326;28;88376;-68
2023/06/18 11:37:20;;;;;;;7.05;6.45;;;23.60;86.40;;;;;;6206576;28;89125;-68
2023/06/18 11:40:23;;;;;;;7.50;6.80;;;23.70;86.40;;;;;;6207671;28;89237;-68
2023/06/18 11:43:26;;;;;;;7.30;6.70;;;23.60;86.40;;;;;;6208051;28;89882;-68
2023/06/18 11:46:30;;;;;;;7.60;7.00;;;23.60;86.30;;;;;;6198284;28;89028;-68
2023/06/18 11:49:32;;;;;;;7.75;7.13;;;23.60;86.30;;;;;;6206682;28;89311;-69
2023/06/18 11:52:36;;;;;;;7.57;6.88;;;23.60;86.20;;;;;;6199672;28;89277;-68
2023/06/18 11:55:38;;;;;;;7.50;6.90;;;23.60;86.30;;;;;;6201175;28;89215;-68
2023/06/18 11:58:41;;;;;;;7.63;7.00;;;23.60;86.20;;;;;;6205150;28;89370;-68
2023/06/18 12:01:45;;;;;;;7.50;6.80;;;23.60;86.20;;;;;;6197014;28;88639;-68
2023/06/18 12:04:47;;;;;;;7.25;6.65;;;23.60;86.30;;;;;;6203531;28;86955;-68
2023/06/18 12:07:49;;;;;;;7.20;6.60;;;23.60;86.20;;;;;;6206816;28;89302;-68
2023/06/18 12:10:53;;;;;;;7.50;6.88;;;23.60;86.30;;;;;;6205470;28;89357;-68
2023/06/18 12:14:03;;;;;;;7.20;6.60;;;23.60;86.20;;;;;;6201870;28;89986;-68
2023/06/18 12:17:12;;;;;;;7.45;6.85;;;23.60;86.20;;;;;;6195418;28;89050;-68
2023/06/18 12:20:15;;;;;;;7.03;6.43;;;23.60;86.20;;;;;;6207591;28;90010;-68
2023/06/18 12:23:17;;;;;;;7.40;6.75;;;23.60;86.30;;;;;;6205793;28;87976;-68
2023/06/18 12:26:19;;;;;;;7.20;6.60;;;23.60;86.20;;;;;;6206654;28;89098;-69
2023/06/18 12:29:26;;;;;;;7.43;6.72;;;23.60;86.20;;;;;;6203065;28;89198;-68
2023/06/18 12:32:28;;;;;;;7.45;6.85;;;23.60;86.20;;;;;;6205808;28;90357;-68
2023/06/18 12:35:31;;;;;;;7.22;6.63;;;23.60;86.20;;;;;;6194302;28;88683;-68
2023/06/18 12:38:40;;;;;;;7.20;6.60;;;23.60;87.10;;;;;;6202054;28;89044;-68
2023/06/18 12:41:42;;;;;;;6.88;6.28;;;23.60;86.20;;;;;;6195921;28;88899;-68
2023/06/18 12:44:45;;;;;;;7.20;6.60;;;23.60;86.20;;;;;;6193628;28;91020;-68
2023/06/18 12:47:47;;;;;;;7.50;6.90;;;23.60;86.20;;;;;;6204062;28;89076;-68
2023/06/18 12:50:51;;;;;;;7.30;6.68;;;23.60;86.20;;;;;;6195443;28;89092;-68
2023/06/18 12:53:52;;;;;;;7.15;6.55;;;23.60;86.10;;;;;;6199982;28;88989;-68
2023/06/18 12:56:55;;;;;;;7.20;6.60;;;23.60;86.10;;;;;;6203154;28;89285;-67
2023/06/18 12:59:59;;;;;;;7.25;6.60;;;23.60;86.10;;;;;;6204793;28;89078;-67
2023/06/18 13:03:01;;;;;;;6.68;6.13;;;23.60;86.20;;;;;;6201151;28;88736;-67
2023/06/18 13:06:03;;;;;;;6.82;6.28;;;23.60;86.10;;;;;;6198973;28;88388;-67
2023/06/18 13:09:05;;;;;;;7.05;6.35;;;23.60;86.10;;;;;;6185789;28;89105;-67
2023/06/18 13:12:08;;;;;;;7.47;6.78;;;23.60;86.10;;;;;;6204827;28;89160;-67
2023/06/18 13:15:11;;;;;;;6.80;6.20;;;23.60;86.10;;;;;;6193450;28;90248;-67
2023/06/18 13:18:17;;;;;;;7.10;6.50;;;23.60;86.10;;;;;;6200114;28;90519;-66
2023/06/18 13:21:19;;;;;;;6.80;6.20;;;23.60;87.00;;;;;;6205221;28;87946;-67
2023/06/18 13:24:21;;;;;;;6.85;6.25;;;23.60;86.90;;;;;;6205837;28;88971;-66
2023/06/18 13:27:23;;;;;;;6.95;6.38;;;23.70;86.10;;;;;;6202574;28;89050;-67
2023/06/18 13:30:26;;;;;;;6.53;6.03;;;23.70;86.10;;;;;;6205856;28;89057;-66
2023/06/18 13:33:28;;;;;;;7.93;7.13;;;23.60;86.00;;;;;;6187969;28;89097;-67
2023/06/18 13:36:30;;;;;;;7.35;6.65;;;23.60;86.10;;;;;;6205674;28;88688;-67
2023/06/18 13:39:32;;;;;;;7.30;6.70;;;23.60;85.90;;;;;;6211657;28;89043;-67
2023/06/18 13:42:34;;;;;;;6.97;6.38;;;23.60;85.90;;;;;;6204625;28;89023;-67
2023/06/18 13:45:38;;;;;;;6.75;6.20;;;23.60;85.90;;;;;;6205327;28;89984;-67
2023/06/18 13:48:40;;;;;;;6.45;5.95;;;23.70;85.90;;;;;;6209873;28;89321;-67
2023/06/18 13:51:42;;;;;;;7.35;6.65;;;23.70;85.90;;;;;;6210061;28;89082;-67
2023/06/18 13:54:44;;;;;;;6.38;5.88;;;23.60;85.90;;;;;;6208732;28;88325;-67
2023/06/18 13:57:46;;;;;;;7.15;6.45;;;23.60;85.80;;;;;;6205977;28;89145;-67
2023/06/18 14:00:49;;;;;;;6.85;6.25;;;23.60;85.80;;;;;;6209253;28;89133;-66
2023/06/18 14:03:51;;;;;;;7.00;6.40;;;23.60;85.80;;;;;;6198000;28;87901;-67
2023/06/18 14:06:53;;;;;;;7.10;6.40;;;23.60;85.70;;;;;;6210481;28;88420;-67
2023/06/18 14:09:55;;;;;;;7.03;6.43;;;23.60;85.70;;;;;;6208340;28;89421;-67
2023/06/18 14:12:57;;;;;;;6.57;6.03;;;23.60;85.70;;;;;;6207163;28;89396;-67
2023/06/18 14:16:02;;;;;;;6.68;6.18;;;23.70;85.80;;;;;;6206880;28;90068;-67
2023/06/18 14:19:04;;;;;;;6.60;6.10;;;23.60;85.70;;;;;;6206592;28;89499;-67
2023/06/18 14:22:06;;;;;;;7.43;6.70;;;23.70;85.70;;;;;;6206440;28;89175;-67
2023/06/18 14:25:09;;;;;;;6.82;6.22;;;23.60;85.70;;;;;;6204550;28;89104;-67
2023/06/18 14:28:11;;;;;;;6.78;6.25;;;23.60;85.70;;;;;;6195217;28;88044;-67
2023/06/18 14:31:14;;;;;;;6.63;6.03;;;23.70;85.70;;;;;;6207165;28;88262;-67
2023/06/18 14:34:16;;;;;;;6.88;6.28;;;23.70;85.70;;;;;;6208322;28;89258;-68
2023/06/18 14:37:21;;;;;;;6.72;6.13;;;23.70;85.70;;;;;;6208058;28;88322;-68
2023/06/18 14:40:23;;;;;;;7.03;6.43;;;23.60;85.60;;;;;;6207524;28;89026;-68
2023/06/18 14:43:25;;;;;;;6.70;6.10;;;23.60;85.50;;;;;;6201249;28;89059;-68
2023/06/18 14:46:29;;;;;;;6.68;6.07;;;23.60;85.50;;;;;;6199044;28;90308;-67
2023/06/18 14:49:31;;;;;;;6.40;5.90;;;23.60;85.50;;;;;;6201482;28;89249;-67
2023/06/18 14:52:33;;;;;;;6.43;5.93;;;23.60;85.50;;;;;;6204289;28;89005;-67
2023/06/18 14:55:35;;;;;;;6.75;6.20;;;23.60;85.50;;;;;;6205458;28;89495;-67
2023/06/18 14:58:37;;;;;;;7.03;6.30;;;23.70;85.50;;;;;;6207177;28;89257;-67
2023/06/18 15:01:40;;;;;;;6.38;5.88;;;23.60;85.50;;;;;;6207573;28;89121;-67
2023/06/18 15:04:42;;;;;;;6.78;6.18;;;23.70;85.60;;;;;;6202612;28;89554;-67
2023/06/18 15:07:44;;;;;;;6.70;6.10;;;23.60;85.50;;;;;;6203036;28;87571;-67
2023/06/18 15:10:46;;;;;;;6.32;5.82;;;23.60;85.50;;;;;;6202245;28;89313;-67
2023/06/18 15:13:48;;;;;;;6.72;6.22;;;23.70;85.50;;;;;;6201251;28;89069;-67
2023/06/18 15:16:51;;;;;;;6.28;5.78;;;23.70;85.50;;;;;;6201688;28;90143;-67
2023/06/18 15:19:56;;;;;;;7.15;6.55;;;23.70;85.50;;;;;;6195322;28;89135;-67
2023/06/18 15:22:58;;;;;;;6.30;5.80;;;23.60;85.40;;;;;;6203878;28;89323;-67
2023/06/18 15:26:00;;;;;;;7.10;6.50;;;23.70;85.40;;;;;;6203749;28;89403;-69
2023/06/18 15:29:02;;;;;;;6.53;6.03;;;23.70;85.40;;;;;;6198506;28;89166;-69
2023/06/18 15:32:06;;;;;;;6.47;5.97;;;23.70;85.40;;;;;;6207665;28;89096;-69
2023/06/18 15:35:08;;;;;;;6.55;6.05;;;23.70;85.40;;;;;;6207900;28;87958;-69
2023/06/18 15:38:10;;;;;;;6.65;6.05;;;23.70;85.40;;;;;;6207959;28;88084;-69
2023/06/18 15:41:12;;;;;;;6.70;6.10;;;23.70;85.40;;;;;;6208447;28;89093;-69
2023/06/18 15:44:14;;;;;;;6.55;5.95;;;23.70;85.40;;;;;;6200476;28;89156;-69
2023/06/18 15:47:17;;;;;;;6.40;5.80;;;23.70;85.40;;;;;;6200311;28;89958;-69
2023/06/18 15:50:19;;;;;;;6.65;6.10;;;23.70;85.40;;;;;;6207989;28;87942;-69